<?xml version="1.0" encoding="UTF-8"?>
<gpx version="1.1" creator="Endomondo.com" xsi:schemaLocation="http://www.topografix.com/GPX/1/1 http://www.topografix.com/GPX/1/1/gpx.xsd http://www.garmin.com/xmlschemas/GpxExtensions/v3 http://www.garmin.com/xmlschemas/GpxExtensionsv3.xsd http://www.garmin.com/xmlschemas/TrackPointExtension/v1 http://www.garmin.com/xmlschemas/TrackPointExtensionv1.xsd" xmlns="http://www.topografix.com/GPX/1/1" xmlns:gpxtpx="http://www.garmin.com/xmlschemas/TrackPointExtension/v1" xmlns:gpxx="http://www.garmin.com/xmlschemas/GpxExtensions/v3" xmlns:xsi="http://www.w3.org/2001/XMLSchema-instance">
 <metadata>
 <author>
 <name>Jan-Philippe Schilt</name>
 <email id="jp.schilt" domain="gmail.com"/>
 </author>
 <link href="http://www.endomondo.com">
 <text>Endomondo</text>
 </link>
 <time>2014-08-14T21:38:55Z</time>
 </metadata>
 <trk>
 <src>http://www.endomondo.com/</src>
 <link href="https://www.endomondo.com/workouts/352941321/1055794">
 <text>endomondo</text>
 </link>
 <type>CYCLING_TRANSPORTATION</type>
 <trkseg>
 <trkpt lat="51.220108" lon="6.795565">
 <time>2014-06-06T21:40:10Z</time>
 </trkpt>
 <trkpt lat="51.220108" lon="6.795565">
 <ele>88.0</ele>
 <time>2014-06-06T21:40:14Z</time>
 </trkpt>
 <trkpt lat="51.219851" lon="6.795431">
 <ele>77.0</ele>
 <time>2014-06-06T21:40:22Z</time>
 </trkpt>
 <trkpt lat="51.219773" lon="6.795317">
 <ele>73.0</ele>
 <time>2014-06-06T21:40:30Z</time>
 </trkpt>
 <trkpt lat="51.219773" lon="6.795317">
 <ele>73.0</ele>
 <time>2014-06-06T21:40:38Z</time>
 </trkpt>
 <trkpt lat="51.219773" lon="6.795317">
 <time>2014-06-06T21:40:38Z</time>
 </trkpt>
 </trkseg>
 <trkseg>
 <trkpt lat="51.219773" lon="6.795317">
 <time>2014-06-06T21:40:57Z</time>
 </trkpt>
 <trkpt lat="51.219773" lon="6.795317">
 <ele>73.0</ele>
 <time>2014-06-06T21:43:58Z</time>
 </trkpt>
 <trkpt lat="51.220203" lon="6.793241">
 <ele>19.0</ele>
 <time>2014-06-06T21:44:03Z</time>
 </trkpt>
 <trkpt lat="51.220203" lon="6.793241">
 <ele>19.0</ele>
 <time>2014-06-06T21:44:08Z</time>
 </trkpt>
 <trkpt lat="51.220203" lon="6.793241">
 <time>2014-06-06T21:44:08Z</time>
 </trkpt>
 </trkseg>
 <trkseg>
 <trkpt lat="51.220203" lon="6.793241">
 <time>2014-06-06T21:44:29Z</time>
 </trkpt>
 <trkpt lat="51.220294" lon="6.792772">
 <ele>42.0</ele>
 <time>2014-06-06T21:46:06Z</time>
 </trkpt>
 <trkpt lat="51.220304" lon="6.792594">
 <ele>57.0</ele>
 <time>2014-06-06T21:46:14Z</time>
 </trkpt>
 <trkpt lat="51.220561" lon="6.792483">
 <ele>73.0</ele>
 <time>2014-06-06T21:46:25Z</time>
 </trkpt>
 <trkpt lat="51.220885" lon="6.792724">
 <ele>78.0</ele>
 <time>2014-06-06T21:46:31Z</time>
 </trkpt>
 <trkpt lat="51.221077" lon="6.792917">
 <ele>81.0</ele>
 <time>2014-06-06T21:46:36Z</time>
 </trkpt>
 <trkpt lat="51.221303" lon="6.793129">
 <ele>81.0</ele>
 <time>2014-06-06T21:46:42Z</time>
 </trkpt>
 <trkpt lat="51.221537" lon="6.79344">
 <ele>85.0</ele>
 <time>2014-06-06T21:46:49Z</time>
 </trkpt>
 <trkpt lat="51.221634" lon="6.79367">
 <ele>91.0</ele>
 <time>2014-06-06T21:46:55Z</time>
 </trkpt>
 <trkpt lat="51.221726" lon="6.793963">
 <ele>99.0</ele>
 <time>2014-06-06T21:47:07Z</time>
 </trkpt>
 <trkpt lat="51.222116" lon="6.794251">
 <ele>96.0</ele>
 <time>2014-06-06T21:47:15Z</time>
 </trkpt>
 <trkpt lat="51.222417" lon="6.794581">
 <ele>100.0</ele>
 <time>2014-06-06T21:47:21Z</time>
 </trkpt>
 <trkpt lat="51.22274" lon="6.794811">
 <ele>99.0</ele>
 <time>2014-06-06T21:47:27Z</time>
 </trkpt>
 <trkpt lat="51.22292" lon="6.794978">
 <ele>103.0</ele>
 <time>2014-06-06T21:47:33Z</time>
 </trkpt>
 <trkpt lat="51.223112" lon="6.795118">
 <ele>100.0</ele>
 <time>2014-06-06T21:47:40Z</time>
 </trkpt>
 <trkpt lat="51.223316" lon="6.795257">
 <ele>103.0</ele>
 <time>2014-06-06T21:47:48Z</time>
 </trkpt>
 <trkpt lat="51.223545" lon="6.795443">
 <ele>99.0</ele>
 <time>2014-06-06T21:47:59Z</time>
 </trkpt>
 <trkpt lat="51.223709" lon="6.795837">
 <ele>91.0</ele>
 <time>2014-06-06T21:48:09Z</time>
 </trkpt>
 <trkpt lat="51.223879" lon="6.795872">
 <ele>88.0</ele>
 <time>2014-06-06T21:48:16Z</time>
 </trkpt>
 <trkpt lat="51.224111" lon="6.79574">
 <ele>83.0</ele>
 <time>2014-06-06T21:48:25Z</time>
 </trkpt>
 <trkpt lat="51.224389" lon="6.795984">
 <ele>78.0</ele>
 <time>2014-06-06T21:48:36Z</time>
 </trkpt>
 <trkpt lat="51.224607" lon="6.796279">
 <ele>74.0</ele>
 <time>2014-06-06T21:48:42Z</time>
 </trkpt>
 <trkpt lat="51.224773" lon="6.796306">
 <ele>78.0</ele>
 <time>2014-06-06T21:48:48Z</time>
 </trkpt>
 <trkpt lat="51.224895" lon="6.796232">
 <ele>80.0</ele>
 <time>2014-06-06T21:48:57Z</time>
 </trkpt>
 <trkpt lat="51.225305" lon="6.796226">
 <ele>79.0</ele>
 <time>2014-06-06T21:49:07Z</time>
 </trkpt>
 <trkpt lat="51.225597" lon="6.796298">
 <ele>82.0</ele>
 <time>2014-06-06T21:49:14Z</time>
 </trkpt>
 <trkpt lat="51.225963" lon="6.796334">
 <ele>79.0</ele>
 <time>2014-06-06T21:49:20Z</time>
 </trkpt>
 <trkpt lat="51.226312" lon="6.796414">
 <ele>82.0</ele>
 <time>2014-06-06T21:49:26Z</time>
 </trkpt>
 <trkpt lat="51.226706" lon="6.796389">
 <ele>83.0</ele>
 <time>2014-06-06T21:49:31Z</time>
 </trkpt>
 <trkpt lat="51.22697" lon="6.796443">
 <ele>84.0</ele>
 <time>2014-06-06T21:49:36Z</time>
 </trkpt>
 <trkpt lat="51.227056" lon="6.796695">
 <ele>82.0</ele>
 <time>2014-06-06T21:49:41Z</time>
 </trkpt>
 <trkpt lat="51.227159" lon="6.796714">
 <ele>79.0</ele>
 <time>2014-06-06T21:49:47Z</time>
 </trkpt>
 <trkpt lat="51.227489" lon="6.796591">
 <ele>78.0</ele>
 <time>2014-06-06T21:49:57Z</time>
 </trkpt>
 <trkpt lat="51.227813" lon="6.796518">
 <ele>80.0</ele>
 <time>2014-06-06T21:50:02Z</time>
 </trkpt>
 <trkpt lat="51.228057" lon="6.796355">
 <ele>85.0</ele>
 <time>2014-06-06T21:50:07Z</time>
 </trkpt>
 <trkpt lat="51.228357" lon="6.796275">
 <ele>86.0</ele>
 <time>2014-06-06T21:50:12Z</time>
 </trkpt>
 <trkpt lat="51.228849" lon="6.796313">
 <ele>86.0</ele>
 <time>2014-06-06T21:50:18Z</time>
 </trkpt>
 <trkpt lat="51.229221" lon="6.796251">
 <ele>89.0</ele>
 <time>2014-06-06T21:50:24Z</time>
 </trkpt>
 <trkpt lat="51.229599" lon="6.796236">
 <ele>94.0</ele>
 <time>2014-06-06T21:50:29Z</time>
 </trkpt>
 <trkpt lat="51.229659" lon="6.796891">
 <ele>92.0</ele>
 <time>2014-06-06T21:50:35Z</time>
 </trkpt>
 <trkpt lat="51.229713" lon="6.797493">
 <ele>91.0</ele>
 <time>2014-06-06T21:50:42Z</time>
 </trkpt>
 <trkpt lat="51.229754" lon="6.797843">
 <ele>93.0</ele>
 <time>2014-06-06T21:50:47Z</time>
 </trkpt>
 <trkpt lat="51.229763" lon="6.798166">
 <ele>90.0</ele>
 <time>2014-06-06T21:50:53Z</time>
 </trkpt>
 <trkpt lat="51.229639" lon="6.798358">
 <ele>90.0</ele>
 <time>2014-06-06T21:50:59Z</time>
 </trkpt>
 <trkpt lat="51.229358" lon="6.798439">
 <ele>89.0</ele>
 <time>2014-06-06T21:51:08Z</time>
 </trkpt>
 <trkpt lat="51.229238" lon="6.798356">
 <ele>89.0</ele>
 <time>2014-06-06T21:51:14Z</time>
 </trkpt>
 <trkpt lat="51.229238" lon="6.798356">
 <time>2014-06-06T21:51:19Z</time>
 </trkpt>
 </trkseg>
 <trkseg>
 <trkpt lat="51.229238" lon="6.798356">
 <time>2014-06-06T21:51:26Z</time>
 </trkpt>
 </trkseg>
 </trk>
</gpx>